Skime, Minnesota
Current Conditions -  °F | °C
As of 7:54 AM on Monday 24 Nov 2014 (Local Time) from KROX Reporting Station
Light Snow Light Snow  
Wind Chill: -7°   Ceiling: 1600
Heat Index: 10°   Visibility: 10mi
Dew Point:   Wind: 16mph
Humidity: 85%   Direction: 340°NNW
Pressure: 29.62"   Gusts: 20mph
Location:  48.629°N, 95.7336°W
Report Text: KROX 241354Z AUTO 34014G17KT 10SM -SN OVC016 M12/M14 A2962 RMK AO2
Loading
Personal Weather Stations






























Interactive Weather Map New forecast layout! Learn more

10-Day Weather Forecast

Advertisements
Track Severe Weather on mobile